Time;durP1;ratioP1;P1;durP2;ratioP2;P2;SDS_P1;SDS_P2;PMS_P1;PMS_P2;Temp;Humidity;BMP_temperature;BMP_pressure;BME280_temperature;BME280_humidity;BME280_pressure;Samples;Min_cycle;Max_cycle;Signal;HPM_P1;HPM_P2
2022/12/07 00:01:53;;;;;;;22.80;4.45;;;;;;;-4.59;42.90;100894.41;6176745;23;20046;-92
2022/12/07 00:04:44;;;;;;;12.90;3.55;;;;;;;-4.64;43.84;100894.91;6143725;23;20012;-90
2022/12/07 00:07:10;;;;;;;9.93;4.00;;;;;;;-4.79;42.93;100873.47;6195003;23;20027;-90
2022/12/07 00:10:03;;;;;;;9.15;3.63;;;;;;;-4.56;42.92;100891.38;6194920;23;20020;-91
2022/12/07 00:12:30;;;;;;;8.35;3.83;;;;;;;-4.81;43.11;100859.47;6166936;23;20043;-89
2022/12/07 00:14:56;;;;;;;8.17;3.90;;;;;;;-4.53;43.37;100899.88;6191557;23;20067;-92
2022/12/07 00:17:33;;;;;;;11.63;3.53;;;;;;;-4.81;43.02;100866.66;6144201;23;20259;-89
2022/12/07 00:19:59;;;;;;;9.70;3.72;;;;;;;-5.10;43.37;100814.81;6193560;23;20024;-91
2022/12/07 00:22:42;;;;;;;9.82;3.92;;;;;;;-5.18;43.10;100812.16;6192543;23;20024;-88
2022/12/07 00:25:09;;;;;;;11.00;4.05;;;;;;;-5.20;43.34;100814.16;6210147;23;20028;-89
2022/12/07 00:27:44;;;;;;;14.25;4.10;;;;;;;-4.80;43.13;100876.31;6240226;23;20004;-91
2022/12/07 00:30:35;;;;;;;10.30;4.32;;;;;;;-4.66;42.78;100886.25;6200147;23;20021;-91
2022/12/07 00:33:06;;;;;;;12.63;4.20;;;;;;;-5.12;42.98;100827.47;6199442;23;20099;-92
2022/12/07 00:35:58;;;;;;;11.75;4.00;;;;;;;-4.72;43.28;100882.44;6171912;23;20027;-92
2022/12/07 00:38:32;;;;;;;10.85;4.13;;;;;;;-4.92;42.88;100859.03;6147599;23;20095;-92
2022/12/07 00:49:39;;;;;;;7.18;3.63;;;;;;;-5.21;43.71;100813.31;6221380;23;20032;-92
2022/12/07 00:53:07;;;;;;;9.32;3.95;;;;;;;-4.89;43.39;100880.88;6169552;23;20020;-92
2022/12/07 00:55:34;;;;;;;13.00;4.55;;;;;;;-5.36;43.13;100792.91;6172463;23;20394;-92
2022/12/07 00:58:10;;;;;;;12.60;4.65;;;;;;;-5.48;42.86;100779.97;6195826;23;20021;-89
2022/12/07 01:01:03;;;;;;;8.57;3.70;;;;;;;-4.82;42.95;100887.16;6169281;23;20012;-90
2022/12/07 01:03:42;;;;;;;13.50;3.88;;;;;;;-5.21;42.78;100831.16;6168752;23;20032;-90
2022/12/07 01:09:06;;;;;;;8.75;3.53;;;;;;;-4.86;41.96;100874.34;6195725;23;20434;-92
2022/12/07 01:11:56;;;;;;;11.02;3.97;;;;;;;-4.77;42.45;100890.16;6175827;23;20016;-91
2022/12/07 01:14:23;;;;;;;14.93;3.83;;;;;;;-5.01;42.50;100851.06;6189545;23;20055;-91
2022/12/07 01:21:16;;;;;;;9.43;3.83;;;;;;;-4.93;41.93;100879.56;6028712;23;20123;-93
2022/12/07 01:23:58;;;;;;;16.10;4.78;;;;;;;-4.99;42.04;100889.06;6026864;23;20047;-93
2022/12/07 01:26:49;;;;;;;10.30;3.72;;;;;;;-4.86;42.37;100883.19;6074482;23;20055;-93
2022/12/07 01:29:20;;;;;;;17.15;4.03;;;;;;;-5.41;42.31;100790.75;6024329;23;20026;-91
2022/12/07 01:31:50;;;;;;;9.10;3.53;;;;;;;-5.33;42.47;100817.38;6023371;23;20116;-92
2022/12/07 01:34:17;;;;;;;10.07;3.58;;;;;;;-5.30;42.18;100809.03;6070684;23;20042;-89
2022/12/07 01:36:43;;;;;;;9.25;3.70;;;;;;;-5.13;42.30;100838.28;6068965;23;20015;-89
2022/12/07 01:39:11;;;;;;;10.85;3.80;;;;;;;-5.28;42.41;100814.19;6046084;23;20026;-88
2022/12/07 01:41:56;;;;;;;;;;;;;;;-4.90;42.49;100878.34;6051325;23;20038;-90
2022/12/07 01:48:19;;;;;;;10.50;3.92;;;;;;;-4.93;42.85;100868.88;6064017;23;20046;-91
2022/12/07 01:51:50;;;;;;;9.48;4.03;;;;;;;-4.88;42.55;100865.69;6107203;23;20020;-91
2022/12/07 01:54:36;;;;;;;8.40;3.17;;;;;;;-4.87;42.44;100870.84;6173366;23;20096;-92
2022/12/07 01:57:18;;;;;;;10.75;4.03;;;;;;;-5.23;42.88;100830.53;6144806;23;20092;-89
2022/12/07 01:59:51;;;;;;;7.93;3.55;;;;;;;-5.17;43.38;100829.81;6174141;23;20036;-89
2022/12/07 02:05:43;;;;;;;9.60;4.38;;;;;;;-5.54;42.98;100762.00;6224303;23;20025;-90
2022/12/07 02:08:14;;;;;;;7.70;3.85;;;;;;;-5.31;42.42;100795.88;6221220;23;20473;-88
2022/12/07 02:10:52;;;;;;;10.88;4.47;;;;;;;-5.05;42.54;100822.25;6172573;23;20084;-91
2022/12/07 02:14:45;;;;;;;9.68;4.20;;;;;;;-4.84;43.06;100859.81;6167950;23;20031;-89
2022/12/07 02:18:05;;;;;;;11.15;4.38;;;;;;;-4.87;43.24;100857.50;6133357;23;20031;-91
2022/12/07 02:21:29;;;;;;;7.85;3.70;;;;;;;-5.56;43.53;100750.69;6171141;23;20102;-90
2022/12/07 02:24:43;;;;;;;12.15;4.28;;;;;;;-5.01;43.08;100860.91;6018139;23;20023;-90
2022/12/07 02:27:24;;;;;;;10.80;4.22;;;;;;;-5.06;43.62;100857.94;6002187;23;20030;-91
2022/12/07 02:30:55;;;;;;;10.02;4.63;;;;;;;-5.03;44.00;100855.75;6029889;23;20023;-91
2022/12/07 02:33:44;;;;;;;8.35;3.95;;;;;;;-5.17;43.34;100820.97;6076952;23;20188;-91
2022/12/07 02:36:28;;;;;;;14.57;4.40;;;;;;;-5.35;43.59;100806.06;6053923;23;20019;-88
2022/12/07 02:39:59;;;;;;;9.18;4.13;;;;;;;-5.17;43.78;100844.97;6029050;23;20074;-89
2022/12/07 02:42:49;;;;;;;12.23;4.63;;;;;;;-5.54;43.97;100783.31;6075442;23;20396;-91
2022/12/07 02:45:26;;;;;;;8.82;4.43;;;;;;;-5.63;43.72;100765.69;6049955;23;20036;-91
2022/12/07 02:48:18;;;;;;;14.32;4.30;;;;;;;-5.36;44.01;100847.06;6049144;23;20019;-88
2022/12/07 02:51:18;;;;;;;8.32;4.13;;;;;;;-6.18;44.38;100734.56;6042830;23;20031;-92
2022/12/07 02:54:40;;;;;;;14.80;4.32;;;;;;;-5.44;44.41;100853.22;6051610;23;20054;-91
2022/12/07 02:57:50;;;;;;;10.43;4.80;;;;;;;-5.28;44.57;100854.19;6026126;23;20078;-92
2022/12/07 03:00:38;;;;;;;16.23;5.65;;;;;;;-5.45;44.59;100854.22;6060411;23;20481;-91
2022/12/07 03:03:25;;;;;;;14.60;6.47;;;;;;;-5.71;44.24;100803.84;6167169;23;20463;-91
2022/12/07 03:10:11;;;;;;;19.23;7.40;;;;;;;-6.01;45.56;100841.88;6194071;23;20033;-91
2022/12/07 03:13:41;;;;;;;14.90;6.53;;;;;;;-6.21;46.35;100841.38;6174657;23;20529;-93
2022/12/07 03:17:01;;;;;;;17.08;6.53;;;;;;;-6.67;46.00;100759.38;6224346;23;20027;-92
2022/12/07 03:19:27;;;;;;;13.70;6.18;;;;;;;-6.20;46.32;100827.06;6073499;23;20022;-88
2022/12/07 03:22:17;;;;;;;13.67;6.20;;;;;;;-6.49;46.25;100772.53;6164310;23;20035;-91
2022/12/07 03:25:10;;;;;;;18.08;6.68;;;;;;;-6.01;46.00;100844.53;6145880;23;20021;-91
2022/12/07 03:28:13;;;;;;;15.80;6.25;;;;;;;-6.22;45.84;100797.97;6145777;23;20551;-90
2022/12/07 03:31:29;;;;;;;14.60;5.88;;;;;;;-5.92;45.76;100835.50;6112881;23;20021;-87
2022/12/07 03:34:52;;;;;;;12.80;4.75;;;;;;;-5.92;46.25;100832.84;6169430;23;20047;-90
2022/12/07 03:38:04;;;;;;;15.43;5.57;;;;;;;-6.03;45.92;100793.28;6170863;23;20016;-91
2022/12/07 03:44:16;;;;;;;8.95;4.22;;;;;;;-6.00;45.56;100767.13;6164918;23;20022;-90
2022/12/07 03:47:01;;;;;;;11.07;5.13;;;;;;;-5.54;45.40;100836.59;6141056;23;20017;-91
2022/12/07 03:49:48;;;;;;;14.18;4.93;;;;;;;-5.48;45.46;100830.59;6176422;23;20007;-88
2022/12/07 03:52:43;;;;;;;10.00;4.45;;;;;;;-5.53;45.53;100832.09;6208825;23;20073;-87
2022/12/07 03:55:30;;;;;;;10.48;4.55;;;;;;;-5.38;45.06;100833.06;6196217;23;20044;-91
2022/12/07 04:00:59;;;;;;;8.57;4.45;;;;;;;-6.20;45.80;100731.25;6196695;23;20093;-89
2022/12/07 04:11:52;;;;;;;8.73;3.72;;;;;;;-6.06;45.34;100716.41;6163444;23;20107;-92
2022/12/07 04:15:17;;;;;;;11.13;4.20;;;;;;;-5.46;45.89;100833.91;5999228;23;20024;-90
2022/12/07 04:18:07;;;;;;;9.65;4.35;;;;;;;-5.48;46.33;100838.56;6002207;23;20015;-91
2022/12/07 04:20:41;;;;;;;8.38;3.45;;;;;;;-5.78;45.87;100784.22;6045329;23;20024;-89
2022/12/07 04:23:11;;;;;;;7.57;4.15;;;;;;;-5.93;46.24;100757.50;6048043;23;20027;-92
2022/12/07 04:25:37;;;;;;;10.82;4.53;;;;;;;-5.80;45.69;100758.75;6046253;23;20019;-90
2022/12/07 04:28:33;;;;;;;10.70;4.38;;;;;;;-5.40;45.83;100823.56;6045702;23;20027;-90
2022/12/07 04:31:08;;;;;;;9.02;4.43;;;;;;;-5.65;45.88;100774.88;6043869;23;20019;-88
2022/12/07 04:34:16;;;;;;;17.67;5.72;;;;;;;-5.48;46.06;100827.91;6046092;23;20474;-91
2022/12/07 04:39:44;;;;;;;14.77;5.53;;;;;;;-6.09;46.63;100801.91;6040394;23;20030;-89
2022/12/07 04:42:14;;;;;;;16.42;4.88;;;;;;;-5.88;46.71;100822.69;6053952;23;20032;-89
2022/12/07 04:44:58;;;;;;;9.68;4.22;;;;;;;-5.78;46.62;100821.50;6013535;23;20019;-93
2022/12/07 04:52:18;;;;;;;16.05;7.05;;;;;;;-5.94;46.64;100821.56;6168919;23;20040;-89
2022/12/07 04:55:51;;;;;;;14.48;5.80;;;;;;;-5.95;46.71;100835.88;6144340;23;20103;-93
2022/12/07 04:59:25;;;;;;;12.13;5.18;;;;;;;-6.01;46.94;100833.88;6170209;23;20524;-93
2022/12/07 05:02:17;;;;;;;13.90;4.88;;;;;;;-5.90;46.81;100820.19;6148567;23;20020;-94
2022/12/07 05:04:59;;;;;;;14.45;5.28;;;;;;;-6.47;47.14;100762.53;6119794;23;20021;-91
2022/12/07 05:07:29;;;;;;;16.65;6.07;;;;;;;-6.49;47.35;100764.53;6144438;23;20028;-91
2022/12/07 05:10:01;;;;;;;12.90;5.30;;;;;;;-6.34;47.61;100807.28;6173371;23;20032;-89
2022/12/07 05:13:24;;;;;;;15.82;5.20;;;;;;;-7.11;47.78;100698.50;6196891;23;20085;-90
2022/12/07 05:16:46;;;;;;;16.13;5.10;;;;;;;-6.42;48.27;100818.75;6126255;23;20049;-90
2022/12/07 05:20:06;;;;;;;17.30;6.25;;;;;;;-6.33;48.20;100826.72;6144537;23;20017;-91
2022/12/07 05:22:32;;;;;;;17.45;6.47;;;;;;;-6.94;48.45;100744.56;6139794;23;20093;-91
2022/12/07 05:25:30;;;;;;;16.30;5.93;;;;;;;-6.60;48.49;100791.44;6169422;23;20017;-90
2022/12/07 05:28:39;;;;;;;15.82;5.88;;;;;;;-6.35;48.56;100828.72;6136662;23;20021;-90
2022/12/07 05:31:07;;;;;;;13.88;5.88;;;;;;;-6.57;48.79;100795.63;6165718;23;20136;-90
2022/12/07 05:33:58;;;;;;;15.02;5.90;;;;;;;-6.42;48.69;100832.06;6119593;23;20017;-91
2022/12/07 05:36:32;;;;;;;19.38;6.40;;;;;;;-7.01;48.95;100743.53;6139934;23;20158;-90
2022/12/07 05:40:04;;;;;;;15.82;6.00;;;;;;;-6.50;49.17;100821.38;6119680;23;20021;-92
2022/12/07 05:42:30;;;;;;;15.27;5.55;;;;;;;-6.88;49.24;100753.72;6117955;23;20329;-90
2022/12/07 05:45:07;;;;;;;23.25;9.98;;;;;;;-6.69;49.89;100779.13;6117037;23;20021;-91
2022/12/07 05:47:59;;;;;;;26.42;8.55;;;;;;;-6.33;49.16;100816.06;6117012;23;20070;-91
2022/12/07 05:50:31;;;;;;;54.65;8.15;;;;;;;-7.05;49.12;100717.44;6146155;23;20021;-90
2022/12/07 05:53:05;;;;;;;20.13;7.50;;;;;;;-7.25;50.16;100709.78;6121676;23;20017;-89
2022/12/07 05:55:37;;;;;;;16.90;7.07;;;;;;;-6.46;50.22;100832.53;6117024;23;20076;-91
2022/12/07 06:06:12;;;;;;;29.52;8.20;;;;;;;-7.36;51.70;100728.66;6192821;23;20027;-91
2022/12/07 06:08:46;;;;;;;24.00;8.23;;;;;;;-7.02;51.95;100797.69;6117738;23;20020;-90
2022/12/07 06:14:47;;;;;;;19.92;8.32;;;;;;;-6.98;52.44;100766.31;6141258;23;20079;-92
2022/12/07 06:17:23;;;;;;;20.95;7.00;;;;;;;-6.87;52.60;100793.41;6116555;23;20017;-90
2022/12/07 06:20:54;;;;;;;19.85;7.38;;;;;;;-6.61;52.81;100827.03;6166595;23;20176;-92
2022/12/07 06:23:20;;;;;;;18.48;7.15;;;;;;;-6.72;52.08;100744.88;6155285;23;20016;-91
2022/12/07 06:26:01;;;;;;;20.10;7.18;;;;;;;-6.57;52.28;100782.31;6133936;23;20056;-93
2022/12/07 06:28:54;;;;;;;20.88;7.20;;;;;;;-6.22;52.08;100829.91;6123591;23;20025;-93
2022/12/07 06:31:54;;;;;;;21.42;6.55;;;;;;;-6.88;51.83;100732.44;6178269;23;20021;-92
2022/12/07 06:34:42;;;;;;;15.73;6.25;;;;;;;-6.39;52.50;100826.41;6125438;23;20017;-89
2022/12/07 06:37:08;;;;;;;20.33;7.30;;;;;;;-6.59;52.22;100763.84;6146346;23;20149;-91
2022/12/07 06:39:38;;;;;;;21.65;7.25;;;;;;;-6.76;52.30;100727.63;6148732;23;20021;-93
2022/12/07 06:42:10;;;;;;;16.77;6.47;;;;;;;-6.36;51.79;100768.50;6121173;23;20012;-93
2022/12/07 06:45:30;;;;;;;15.88;6.53;;;;;;;-5.84;51.57;100822.16;6142768;23;20024;-91
2022/12/07 06:52:04;;;;;;;13.50;6.22;;;;;;;-5.90;51.67;100817.50;6083713;23;20018;-93
2022/12/07 06:54:57;;;;;;;14.55;5.97;;;;;;;-6.14;51.91;100778.47;6048484;23;20019;-92
2022/12/07 06:58:31;;;;;;;17.70;6.97;;;;;;;-5.78;51.50;100810.84;6073230;23;20074;-90
2022/12/07 07:01:21;;;;;;;16.50;6.38;;;;;;;-6.07;52.38;100819.41;6036146;23;20022;-91
2022/12/07 07:04:03;;;;;;;18.65;7.35;;;;;;;-6.46;52.60;100758.88;6063222;23;20022;-89
2022/12/07 07:07:25;;;;;;;18.33;7.40;;;;;;;-5.90;52.42;100817.50;6065818;23;20030;-91
2022/12/07 07:10:18;;;;;;;23.33;7.00;;;;;;;-6.25;53.21;100832.06;6064744;23;20051;-89
2022/12/07 07:13:48;;;;;;;21.40;6.93;;;;;;;-5.86;52.55;100826.00;6067201;23;20023;-92
2022/12/07 07:17:03;;;;;;;20.23;6.57;;;;;;;-5.85;52.09;100828.50;6088522;23;20023;-91
2022/12/07 07:19:55;;;;;;;15.20;6.63;;;;;;;-5.90;52.00;100809.53;6098296;23;20050;-88
2022/12/07 07:22:24;;;;;;;16.92;6.50;;;;;;;-6.38;52.25;100766.03;6101553;23;20021;-92
2022/12/07 07:25:16;;;;;;;14.80;6.22;;;;;;;-5.77;52.42;100817.81;6118690;23;20018;-91
2022/12/07 07:27:48;;;;;;;17.42;6.72;;;;;;;-6.21;52.30;100796.13;6129878;23;20005;-91
2022/12/07 07:30:56;;;;;;;16.58;6.13;;;;;;;-6.38;52.68;100750.06;6155258;23;20013;-90
2022/12/07 07:33:22;;;;;;;19.90;6.57;;;;;;;-6.06;51.85;100756.34;6172032;23;20017;-92
2022/12/07 07:36:15;;;;;;;16.40;7.18;;;;;;;-6.02;51.27;100723.06;6129181;23;20112;-92
2022/12/07 07:42:07;;;;;;;12.80;5.60;;;;;;;-5.83;50.37;100713.81;6104925;23;20018;-91
2022/12/07 07:44:34;;;;;;;16.30;6.43;;;;;;;-5.49;50.46;100772.97;6059614;23;20396;-92
2022/12/07 07:47:08;;;;;;;16.05;6.38;;;;;;;-5.98;50.78;100701.25;6040985;23;20019;-92
2022/12/07 07:49:34;;;;;;;17.58;7.15;;;;;;;-5.63;51.07;100812.81;6080874;23;20097;-89
2022/12/07 07:52:11;;;;;;;17.08;6.53;;;;;;;-5.84;51.28;100734.28;6079793;23;20018;-88
2022/12/07 07:55:42;;;;;;;13.35;5.32;;;;;;;-5.43;50.90;100806.06;6101811;23;20022;-91
2022/12/07 07:58:33;;;;;;;17.98;7.00;;;;;;;-5.44;51.38;100813.25;6084734;23;20084;-92
2022/12/07 08:01:13;;;;;;;18.45;7.13;;;;;;;-5.91;51.36;100735.97;6059423;23;20082;-91
2022/12/07 08:03:40;;;;;;;20.45;7.00;;;;;;;-5.96;51.34;100749.00;6057577;23;20090;-90
2022/12/07 08:06:21;;;;;;;23.38;6.07;;;;;;;-5.54;51.00;100759.31;6055308;23;20018;-90
2022/12/07 08:08:48;;;;;;;12.68;5.95;;;;;;;-5.63;50.80;100736.38;6062719;23;20086;-88
2022/12/07 08:11:22;;;;;;;15.60;6.28;;;;;;;-5.54;50.63;100729.19;6061793;23;20042;-90
2022/12/07 08:14:54;;;;;;;13.75;6.45;;;;;;;-4.92;50.27;100797.72;6080786;23;20022;-90
2022/12/07 08:17:21;;;;;;;13.93;5.97;;;;;;;-5.33;49.99;100757.91;6170033;23;20068;-91
2022/12/07 08:19:58;;;;;;;14.43;5.97;;;;;;;-5.35;50.32;100741.28;6145568;23;20095;-92
2022/12/07 08:23:02;;;;;;;12.77;6.10;;;;;;;-5.05;49.74;100764.44;6148405;23;20017;-89
2022/12/07 08:25:37;;;;;;;15.43;6.82;;;;;;;-4.96;48.75;100743.88;6160621;23;20373;-90
2022/12/07 08:28:04;;;;;;;13.10;5.87;;;;;;;-5.30;49.17;100721.06;6137645;23;20459;-91
2022/12/07 08:30:30;;;;;;;17.02;6.75;;;;;;;-5.17;49.15;100717.84;6139876;23;20017;-90
2022/12/07 08:32:57;;;;;;;19.40;5.97;;;;;;;-5.12;49.12;100752.81;6161683;23;20087;-91
2022/12/07 08:35:29;;;;;;;17.00;6.68;;;;;;;-5.17;49.33;100733.81;6114908;23;20022;-89
2022/12/07 08:38:20;;;;;;;17.58;7.72;;;;;;;-4.70;48.99;100791.56;6164459;23;20029;-88
2022/12/07 08:40:57;;;;;;;16.48;6.28;;;;;;;-5.35;48.84;100682.63;6117884;23;20022;-88
2022/12/07 08:43:24;;;;;;;26.70;9.48;;;;;;;-5.25;48.67;100677.91;6151391;23;20018;-89
2022/12/07 08:46:19;;;;;;;15.10;6.32;;;;;;;-4.69;48.89;100774.53;6150721;23;20018;-91
2022/12/07 08:49:16;;;;;;;19.00;6.25;;;;;;;-5.38;48.55;100653.69;6116694;23;20026;-92
2022/12/07 08:51:53;;;;;;;;;;;;;;;-4.67;48.46;100769.84;6112206;23;20109;-90
2022/12/07 08:54:19;;;;;;;13.05;6.25;;;;;;;-4.79;48.76;100772.09;6111151;23;19921;-93
2022/12/07 08:56:57;;;;;;;18.20;7.90;;;;;;;-5.11;48.72;100702.97;6140174;23;20028;-93
2022/12/07 08:59:24;;;;;;;14.75;6.53;;;;;;;-4.83;48.09;100709.47;6136276;23;20028;-91
2022/12/07 09:02:16;;;;;;;15.50;6.60;;;;;;;-4.33;47.92;100764.09;6124402;23;20025;-91
2022/12/07 09:04:42;;;;;;;18.48;6.82;;;;;;;-4.29;47.46;100737.88;6135504;23;20032;-88
2022/12/07 09:07:09;;;;;;;11.30;4.78;;;;;;;-4.58;47.29;100707.41;6161040;23;20017;-91
2022/12/07 09:09:35;;;;;;;12.88;5.53;;;;;;;-4.66;47.17;100696.00;6083020;23;20119;-92
2022/12/07 09:12:40;;;;;;;13.73;5.53;;;;;;;-4.55;46.85;100717.72;6059069;23;20018;-93
2022/12/07 09:15:13;;;;;;;16.40;6.28;;;;;;;-4.74;46.50;100651.53;6057528;23;20034;-90
2022/12/07 09:17:42;;;;;;;12.30;5.13;;;;;;;-4.50;46.34;100698.53;6062760;23;20025;-89
2022/12/07 09:20:09;;;;;;;16.60;6.40;;;;;;;-4.46;46.51;100702.47;6115750;23;20017;-89
2022/12/07 09:22:37;;;;;;;12.48;5.68;;;;;;;-4.82;46.28;100632.94;6073733;23;20057;-90
2022/12/07 09:25:04;;;;;;;12.00;5.63;;;;;;;-4.20;46.34;100742.13;6097564;23;20017;-88
2022/12/07 09:27:39;;;;;;;11.60;5.65;;;;;;;-4.37;45.96;100701.41;6122941;23;20073;-90
2022/12/07 09:31:07;;;;;;;5.93;3.20;;;;;;;-4.28;45.90;100740.34;6095247;23;20018;-90
2022/12/07 09:33:37;;;;;;;14.88;6.00;;;;;;;-4.71;46.47;100688.50;6122770;23;20057;-90
2022/12/07 09:36:06;;;;;;;12.02;5.32;;;;;;;-4.74;46.38;100624.84;6091958;23;20049;-92
2022/12/07 09:38:35;;;;;;;15.15;5.78;;;;;;;-4.27;45.99;100685.13;6091226;23;20052;-91
2022/12/07 09:41:32;;;;;;;13.50;5.43;;;;;;;-4.30;46.03;100697.00;6056927;23;20023;-89
2022/12/07 09:44:27;;;;;;;11.52;4.95;;;;;;;-3.92;45.95;100726.31;6076782;23;20019;-91
2022/12/07 09:46:54;;;;;;;10.77;5.25;;;;;;;-3.87;45.40;100731.94;6048206;23;20026;-90
2022/12/07 09:49:26;;;;;;;12.60;5.13;;;;;;;-4.13;45.23;100662.94;6046449;23;20080;-88
2022/12/07 09:52:19;;;;;;;10.20;5.05;;;;;;;-3.84;45.28;100726.22;6020544;23;20362;-91
2022/12/07 09:54:51;;;;;;;14.07;5.35;;;;;;;-4.23;45.64;100650.88;6046054;23;20014;-89
2022/12/07 10:00:22;;;;;;;13.52;5.55;;;;;;;-3.93;45.23;100681.91;6021415;23;20022;-89
2022/12/07 10:02:55;;;;;;;14.15;5.50;;;;;;;-3.69;45.27;100718.19;6023153;23;20027;-89
2022/12/07 10:06:14;;;;;;;11.27;5.10;;;;;;;-3.68;44.87;100682.44;6070591;23;20071;-90
2022/12/07 10:08:43;;;;;;;14.25;5.72;;;;;;;-4.16;45.18;100665.97;6050340;23;20051;-89
2022/12/07 10:11:11;;;;;;;12.88;5.68;;;;;;;-4.08;45.84;100695.25;6051903;23;20492;-88
2022/12/07 10:13:48;;;;;;;12.63;5.50;;;;;;;-4.17;45.74;100679.50;6076420;23;20025;-89
2022/12/07 10:16:37;;;;;;;9.50;4.85;;;;;;;-4.11;46.00;100692.13;6048707;23;20484;-90
2022/12/07 10:19:27;;;;;;;21.80;6.22;;;;;;;-4.07;45.77;100706.78;6093950;23;20029;-88
2022/12/07 10:22:14;;;;;;;11.55;5.72;;;;;;;-3.85;45.82;100683.66;6078229;23;20465;-88
2022/12/07 10:24:49;;;;;;;14.68;5.68;;;;;;;-4.10;45.58;100646.56;6076388;23;20018;-90
2022/12/07 10:27:18;;;;;;;14.65;6.32;;;;;;;-3.67;45.61;100699.31;6102191;23;20481;-88
2022/12/07 10:29:52;;;;;;;11.57;5.28;;;;;;;-3.89;44.81;100671.69;6106428;23;20041;-88
2022/12/07 10:32:18;;;;;;;15.35;6.00;;;;;;;-3.75;45.22;100696.72;6133301;23;20138;-90
2022/12/07 10:34:45;;;;;;;;;;;;;;;-4.01;45.87;100692.66;6086080;23;20021;-89
2022/12/07 10:37:21;;;;;;;15.45;6.03;;;;;;;-4.13;45.66;100654.94;6129408;23;20097;-88
2022/12/07 10:39:53;;;;;;;11.48;4.90;;;;;;;-3.92;45.75;100693.41;6083991;23;20041;-89
2022/12/07 10:42:25;;;;;;;12.40;5.43;;;;;;;-4.35;46.01;100680.69;6104258;23;20029;-90
2022/12/07 10:45:18;;;;;;;15.13;6.18;;;;;;;-4.16;46.48;100679.31;6126703;23;20104;-88
2022/12/07 10:47:47;;;;;;;19.38;5.75;;;;;;;-4.56;46.52;100636.03;6186410;23;20021;-89
2022/12/07 10:50:45;;;;;;;13.57;5.15;;;;;;;-4.27;46.99;100685.13;6142722;23;20024;-88
2022/12/07 10:53:36;;;;;;;11.38;5.35;;;;;;;-4.36;46.28;100638.16;6114082;23;20104;-88
2022/12/07 10:56:34;;;;;;;14.77;6.05;;;;;;;-4.00;46.81;100667.66;6172970;23;20442;-87
2022/12/07 10:59:04;;;;;;;15.52;5.40;;;;;;;-4.06;46.24;100671.03;6147330;23;20025;-87
2022/12/07 11:01:53;;;;;;;13.40;5.47;;;;;;;-4.47;46.42;100641.25;6139621;23;20024;-89
2022/12/07 11:04:50;;;;;;;16.35;5.75;;;;;;;-4.13;46.42;100657.59;6117817;23;20028;-90
2022/12/07 11:07:37;;;;;;;17.60;5.60;;;;;;;-3.96;46.66;100658.25;6191249;23;20447;-88
2022/12/07 11:10:22;;;;;;;9.80;4.57;;;;;;;-3.94;46.43;100661.56;6117940;23;20021;-88
2022/12/07 11:13:23;;;;;;;18.25;5.65;;;;;;;-3.86;46.27;100664.13;6146289;23;20017;-90
2022/12/07 11:16:20;;;;;;;20.65;5.80;;;;;;;-3.95;46.02;100624.34;6116879;23;20073;-89
2022/12/07 11:19:06;;;;;;;13.75;6.25;;;;;;;-3.61;45.65;100658.47;6114095;23;20360;-88
2022/12/07 11:21:48;;;;;;;14.15;6.07;;;;;;;-3.52;45.60;100646.66;6113210;23;20052;-88
2022/12/07 11:24:24;;;;;;;14.15;6.32;;;;;;;-3.68;45.62;100644.19;6137852;23;20021;-91
2022/12/07 11:27:09;;;;;;;14.45;5.88;;;;;;;-3.73;46.10;100643.94;6111302;23;20017;-89
2022/12/07 11:29:44;;;;;;;19.35;6.93;;;;;;;-3.73;45.97;100634.09;6108744;23;20025;-89
2022/12/07 11:32:38;;;;;;;17.40;7.38;;;;;;;-3.95;46.18;100627.84;6132712;23;20018;-89
2022/12/07 11:35:18;;;;;;;17.92;6.70;;;;;;;-4.03;46.96;100620.75;6157480;23;20399;-90
2022/12/07 11:38:08;;;;;;;26.85;7.25;;;;;;;-3.84;46.60;100631.88;6133013;23;20049;-88
2022/12/07 11:40:36;;;;;;;13.85;6.43;;;;;;;-4.24;46.51;100593.97;6164307;23;20057;-86
2022/12/07 11:43:26;;;;;;;16.85;6.82;;;;;;;-3.85;46.46;100641.72;6173669;23;20073;-88
2022/12/07 11:52:27;;;;;;;13.18;6.93;;;;;;;-3.51;45.91;100632.25;6160301;23;20086;-89
2022/12/07 11:54:54;;;;;;;17.67;6.22;;;;;;;-3.87;45.92;100602.88;6159519;23;20025;-88
2022/12/07 11:57:51;;;;;;;16.85;7.40;;;;;;;-4.11;46.58;100591.47;6156453;23;20691;-88
2022/12/07 12:00:19;;;;;;;19.45;6.38;;;;;;;-4.31;46.68;100591.19;6156731;23;20076;-90
2022/12/07 12:02:57;;;;;;;;;;;;;;;-4.10;46.91;100622.53;6109504;23;20036;-89
2022/12/07 12:05:29;;;;;;;21.48;6.95;;;;;;;-4.49;47.18;100570.22;6157073;23;19956;-88
2022/12/07 12:08:16;;;;;;;18.23;7.38;;;;;;;-4.47;47.39;100570.03;6157058;23;20024;-89
2022/12/07 12:14:30;;;;;;;13.00;6.45;;;;;;;-4.04;47.01;100605.75;6169673;23;20017;-89
2022/12/07 12:17:34;;;;;;;16.98;5.40;;;;;;;-4.32;47.37;100604.75;6179143;23;20040;-86
2022/12/07 12:20:22;;;;;;;14.98;6.95;;;;;;;-4.67;48.15;100569.75;6114772;23;20017;-89
2022/12/07 12:23:01;;;;;;;19.55;6.40;;;;;;;-4.60;48.54;100604.53;6161142;23;20459;-89
2022/12/07 12:26:17;;;;;;;15.30;6.95;;;;;;;-4.50;48.37;100600.59;6148430;23;20168;-90
2022/12/07 12:28:58;;;;;;;18.02;7.90;;;;;;;-4.40;47.96;100602.16;6163949;23;20024;-89
2022/12/07 12:35:08;;;;;;;16.58;7.50;;;;;;;-4.70;48.93;100596.81;6178685;23;20017;-91
2022/12/07 12:37:41;;;;;;;18.85;7.68;;;;;;;-5.22;48.61;100513.13;6098963;23;20037;-92
2022/12/07 12:40:30;;;;;;;13.30;5.50;;;;;;;-5.01;49.02;100571.06;6119220;23;20009;-91
2022/12/07 12:46:58;;;;;;;17.67;7.43;;;;;;;-4.72;49.52;100591.66;6140249;23;20533;-90
2022/12/07 12:49:26;;;;;;;15.60;6.93;;;;;;;-4.90;49.59;100590.31;6118690;23;20029;-89
2022/12/07 12:51:57;;;;;;;16.40;7.50;;;;;;;-4.83;49.98;100591.28;6096748;23;20076;-91
2022/12/07 12:55:01;;;;;;;21.05;7.35;;;;;;;-5.08;50.06;100575.47;6096130;23;20021;-91
2022/12/07 12:57:31;;;;;;;18.30;7.93;;;;;;;-4.87;49.43;100560.63;6086032;23;20090;-89
2022/12/07 13:00:03;;;;;;;19.42;7.30;;;;;;;-4.87;49.50;100590.78;6152542;23;20268;-90
2022/12/07 13:02:47;;;;;;;19.55;7.93;;;;;;;-5.28;50.10;100553.81;6141765;23;20020;-91
2022/12/07 13:05:39;;;;;;;21.23;7.80;;;;;;;-5.21;50.52;100584.06;6190388;23;20016;-89
2022/12/07 13:08:25;;;;;;;19.40;7.88;;;;;;;-5.45;50.58;100517.66;6217749;23;20463;-90
2022/12/07 13:11:48;;;;;;;29.75;9.55;;;;;;;-5.10;50.56;100595.31;6212419;23;20040;-90
2022/12/07 13:15:06;;;;;;;22.35;8.10;;;;;;;-5.17;50.81;100595.19;6232001;23;20023;-90
2022/12/07 13:17:32;;;;;;;17.38;7.60;;;;;;;-5.07;50.64;100590.44;6185323;23;20054;-92
2022/12/07 13:20:44;;;;;;;20.08;8.00;;;;;;;-5.44;51.24;100588.59;6211941;23;20008;-90
2022/12/07 13:23:42;;;;;;;19.45;7.45;;;;;;;-6.17;51.57;100478.91;6235997;23;20023;-92
2022/12/07 13:27:11;;;;;;;17.83;8.15;;;;;;;-5.44;51.30;100596.56;6176118;23;20020;-92
2022/12/07 13:30:36;;;;;;;19.60;8.25;;;;;;;-5.56;51.86;100600.63;6181459;23;20020;-92
2022/12/07 13:33:27;;;;;;;19.70;7.90;;;;;;;-5.42;51.72;100597.25;6180869;23;20019;-91
2022/12/07 13:35:56;;;;;;;21.95;8.35;;;;;;;-5.97;51.68;100519.19;6082789;23;20114;-91
2022/12/07 13:39:10;;;;;;;21.40;8.02;;;;;;;-5.56;51.34;100574.84;6087721;23;20033;-91
2022/12/07 13:42:46;;;;;;;22.23;8.07;;;;;;;-5.72;51.23;100535.84;6134842;23;20032;-90
2022/12/07 13:48:46;;;;;;;24.23;8.10;;;;;;;-5.27;50.88;100587.44;6099254;23;20154;-90
2022/12/07 13:51:38;;;;;;;23.13;8.25;;;;;;;-5.40;50.67;100591.72;6208332;23;20025;-91
2022/12/07 13:54:19;;;;;;;29.10;8.38;;;;;;;-5.86;51.17;100539.25;5979392;23;20047;-90
2022/12/07 13:57:18;;;;;;;19.02;8.30;;;;;;;-5.48;51.46;100592.63;6150267;23;20017;-91
2022/12/07 14:00:31;;;;;;;21.63;7.32;;;;;;;-5.98;51.26;100516.72;6168294;23;20017;-91
2022/12/07 14:03:42;;;;;;;18.63;8.05;;;;;;;-5.60;51.95;100584.19;6149595;23;20352;-92
2022/12/07 14:06:33;;;;;;;25.65;7.95;;;;;;;-5.37;51.09;100581.53;6146697;23;20108;-91
2022/12/07 14:09:23;;;;;;;21.33;8.75;;;;;;;-5.39;50.95;100577.41;6087456;23;20062;-93
2022/12/07 14:11:53;;;;;;;22.23;8.15;;;;;;;-5.37;50.95;100575.38;6089257;23;20620;-92
2022/12/07 14:15:10;;;;;;;21.58;8.63;;;;;;;-5.52;51.26;100570.00;6111962;23;20022;-92
2022/12/07 14:18:36;;;;;;;19.17;7.65;;;;;;;-5.33;50.90;100568.69;6174375;23;20024;-91
2022/12/07 14:21:15;;;;;;;18.25;6.35;;;;;;;-6.33;51.19;100478.16;6122266;23;20051;-91